createdAt,value
2019-03-03T00:00:53.904Z,100596.73
2019-03-03T00:03:26.838Z,100595.31
2019-03-03T00:05:59.850Z,100592.71
2019-03-03T00:08:32.803Z,100584.85
2019-03-03T00:11:05.892Z,100577.41
2019-03-03T00:13:38.708Z,100574.45
2019-03-03T00:16:11.647Z,100572.70
2019-03-03T00:18:44.507Z,100563.55
2019-03-03T00:21:18.936Z,100553.89
2019-03-03T00:23:53.612Z,100559.56
2019-03-03T00:26:26.405Z,100558.20
2019-03-03T00:28:59.254Z,100549.48
2019-03-03T00:31:40.697Z,100548.36
2019-03-03T00:34:13.580Z,100549.66
2019-03-03T00:37:03.859Z,100556.16
2019-03-03T00:39:45.911Z,100552.28
2019-03-03T00:42:30.149Z,100552.41
2019-03-03T00:45:10.433Z,100548.14
2019-03-03T00:48:01.074Z,100551.60
2019-03-03T00:50:51.534Z,100543.30
2019-03-03T00:53:46.297Z,100553.14
2019-03-03T00:56:30.625Z,100549.69
2019-03-03T00:59:09.571Z,100546.14
2019-03-03T01:02:13.325Z,100544.34
2019-03-03T01:04:55.666Z,100549.66
2019-03-03T01:07:59.517Z,100548.92
2019-03-03T01:10:57.034Z,100543.86
2019-03-03T01:13:44.182Z,100543.26
2019-03-03T01:16:36.024Z,100535.33
2019-03-03T01:19:14.820Z,100535.03
2019-03-03T01:22:24.600Z,100542.72
2019-03-03T01:24:56.317Z,100538.98
2019-03-03T01:27:29.524Z,100537.58
2019-03-03T01:30:02.366Z,100536.63
2019-03-03T01:32:35.319Z,100531.26
2019-03-03T01:35:08.967Z,100535.39
2019-03-03T01:37:41.792Z,100523.50
2019-03-03T01:40:14.533Z,100515.07
2019-03-03T01:42:47.340Z,100511.80
2019-03-03T01:45:20.105Z,100502.50
2019-03-03T01:47:53.396Z,100505.17
2019-03-03T01:50:26.211Z,100493.83
2019-03-03T01:52:58.956Z,100502.52
2019-03-03T01:55:32.277Z,100494.37
2019-03-03T01:58:05.193Z,100495.80
2019-03-03T02:00:39.864Z,100490.81
2019-03-03T02:03:12.910Z,100502.24
2019-03-03T02:05:45.702Z,100495.91
2019-03-03T02:08:18.420Z,100492.61
2019-03-03T02:10:51.421Z,100495.38
2019-03-03T02:13:24.317Z,100490.30
2019-03-03T02:15:57.251Z,100490.84
2019-03-03T02:18:32.112Z,100480.08
2019-03-03T02:21:05.170Z,100476.14
2019-03-03T02:23:37.950Z,100469.01
2019-03-03T02:26:10.811Z,100461.97
2019-03-03T02:28:43.745Z,100455.42
2019-03-03T02:31:16.466Z,100454.52
2019-03-03T02:33:49.382Z,100453.22
2019-03-03T02:36:22.261Z,100453.95
2019-03-03T02:38:55.049Z,100453.05
2019-03-03T02:41:27.785Z,100453.05
2019-03-03T02:44:00.530Z,100449.59
2019-03-03T02:46:33.327Z,100442.61
2019-03-03T02:49:06.081Z,100437.34
2019-03-03T02:51:38.935Z,100438.17
2019-03-03T02:54:11.718Z,100432.50
2019-03-03T02:56:44.590Z,100426.38
2019-03-03T02:59:17.451Z,100429.23
2019-03-03T03:01:54.230Z,100426.94
2019-03-03T03:04:27.287Z,100422.55
2019-03-03T03:07:31.041Z,100419.91
2019-03-03T03:10:22.341Z,100419.80
2019-03-03T03:13:10.088Z,100413.56
2019-03-03T03:15:56.345Z,100414.17
2019-03-03T03:18:53.115Z,100404.78
2019-03-03T03:21:45.738Z,100396.80
2019-03-03T03:24:36.134Z,100405.33
2019-03-03T03:27:27.529Z,100407.98
2019-03-03T03:30:21.957Z,100404.97
2019-03-03T03:33:26.008Z,100396.85
2019-03-03T03:36:03.294Z,100390.30
2019-03-03T03:38:45.400Z,100395.06
2019-03-03T03:41:23.407Z,100400.25
2019-03-03T03:44:15.036Z,100390.19
2019-03-03T03:46:53.119Z,100382.31
2019-03-03T03:49:39.654Z,100375.27
2019-03-03T03:52:49.632Z,100365.12
2019-03-03T03:55:51.506Z,100350.77
2019-03-03T03:58:52.348Z,100332.38
2019-03-03T04:01:41.680Z,100343.07
2019-03-03T04:04:21.518Z,100340.80
2019-03-03T04:07:22.111Z,100342.00
2019-03-03T04:10:00.501Z,100332.79
2019-03-03T04:12:53.172Z,100331.84
2019-03-03T04:15:39.205Z,100328.63
2019-03-03T04:18:25.379Z,100327.67
2019-03-03T04:21:04.426Z,100315.47
2019-03-03T04:23:55.159Z,100307.17
2019-03-03T04:26:52.540Z,100301.85
2019-03-03T04:29:33.861Z,100310.82
2019-03-03T04:32:25.512Z,100299.54
2019-03-03T04:35:05.785Z,100299.54
2019-03-03T04:38:00.609Z,100295.20
2019-03-03T04:40:42.539Z,100292.91
2019-03-03T04:43:21.905Z,100298.02
2019-03-03T04:46:10.185Z,100306.70
2019-03-03T04:49:10.158Z,100309.15
2019-03-03T04:52:02.648Z,100305.13
2019-03-03T04:55:06.666Z,100307.63
2019-03-03T04:58:01.181Z,100302.30
2019-03-03T05:00:51.718Z,100301.73
2019-03-03T05:03:55.460Z,100300.20
2019-03-03T05:06:40.538Z,100293.48
2019-03-03T05:09:26.301Z,100291.54
2019-03-03T05:12:42.837Z,100288.77
2019-03-03T05:15:35.262Z,100286.90
2019-03-03T05:18:27.268Z,100285.88
2019-03-03T05:21:00.369Z,100283.94
2019-03-03T05:23:33.122Z,100280.31
2019-03-03T05:26:05.873Z,100274.45
2019-03-03T05:28:38.653Z,100273.88
2019-03-03T05:31:13.607Z,100270.69
2019-03-03T05:33:46.442Z,100271.41
2019-03-03T05:36:19.289Z,100271.62
2019-03-03T05:38:52.067Z,100262.41
2019-03-03T05:41:25.998Z,100262.67
2019-03-03T05:43:58.700Z,100266.06
2019-03-03T05:46:31.546Z,100264.25
2019-03-03T05:49:04.424Z,100265.00
2019-03-03T05:51:39.873Z,100257.60
2019-03-03T05:54:13.929Z,100263.08
2019-03-03T05:56:46.673Z,100254.34
2019-03-03T05:59:19.491Z,100255.47
2019-03-03T06:01:52.219Z,100257.86
2019-03-03T06:04:27.177Z,100259.43
2019-03-03T06:07:00.015Z,100249.69
2019-03-03T06:09:32.765Z,100249.55
2019-03-03T06:12:05.573Z,100251.63
2019-03-03T06:14:38.398Z,100254.57
2019-03-03T06:17:11.158Z,100254.02
2019-03-03T06:19:43.911Z,100255.73
2019-03-03T06:22:16.659Z,100256.96
2019-03-03T06:24:49.637Z,100259.97
2019-03-03T06:27:22.384Z,100254.25
2019-03-03T06:29:55.297Z,100249.78
2019-03-03T06:32:28.089Z,100244.58
2019-03-03T06:35:00.809Z,100234.49
2019-03-03T06:37:33.614Z,100229.91
2019-03-03T06:40:07.206Z,100234.68
2019-03-03T06:42:40.204Z,100225.48
2019-03-03T06:45:13.707Z,100223.36
2019-03-03T06:47:46.620Z,100222.36
2019-03-03T06:50:19.414Z,100213.65
2019-03-03T06:52:57.980Z,100205.69
2019-03-03T06:55:31.342Z,100193.36
2019-03-03T06:58:06.275Z,100210.29
2019-03-03T07:00:51.113Z,100210.55
2019-03-03T07:03:24.230Z,100212.92
2019-03-03T07:05:57.442Z,100226.99
2019-03-03T07:08:30.377Z,100220.33
2019-03-03T07:11:03.225Z,100216.39
2019-03-03T07:13:35.951Z,100224.91
2019-03-03T07:16:08.842Z,100217.88
2019-03-03T07:18:41.609Z,100203.80
2019-03-03T07:21:14.459Z,100194.99
2019-03-03T07:23:47.349Z,100175.67
2019-03-03T07:26:20.177Z,100174.98
2019-03-03T07:28:53.018Z,100174.53
2019-03-03T07:31:26.120Z,100169.02
2019-03-03T07:34:01.660Z,100172.48
2019-03-03T07:36:35.085Z,100183.23
2019-03-03T07:39:18.918Z,100183.77
2019-03-03T07:41:52.490Z,100180.70
2019-03-03T07:44:25.287Z,100185.08
2019-03-03T07:46:58.057Z,100187.55
2019-03-03T07:49:31.054Z,100183.07
2019-03-03T07:52:03.828Z,100184.61
2019-03-03T07:54:36.715Z,100185.70
2019-03-03T07:57:09.601Z,100185.86
2019-03-03T07:59:42.404Z,100181.32
2019-03-03T08:02:15.156Z,100190.25
2019-03-03T08:04:49.968Z,100190.53
2019-03-03T08:07:22.564Z,100189.91
2019-03-03T08:09:55.406Z,100183.08
2019-03-03T08:12:28.190Z,100169.17
2019-03-03T08:15:01.019Z,100167.78
2019-03-03T08:17:35.260Z,100172.13
2019-03-03T08:20:08.584Z,100160.05
2019-03-03T08:22:41.488Z,100157.34
2019-03-03T08:25:14.503Z,100157.13
2019-03-03T08:27:47.338Z,100157.43
2019-03-03T08:30:20.104Z,100155.84
2019-03-03T08:32:53.231Z,100150.38
2019-03-03T08:35:26.324Z,100154.64
2019-03-03T08:37:59.128Z,100148.06
2019-03-03T08:40:33.037Z,100149.09
2019-03-03T08:43:23.043Z,100148.40
2019-03-03T08:46:04.762Z,100143.64
2019-03-03T08:49:10.756Z,100133.50
2019-03-03T08:52:07.169Z,100137.56
2019-03-03T08:54:59.999Z,100134.89
2019-03-03T08:58:06.163Z,100134.94
2019-03-03T09:00:45.925Z,100127.39
2019-03-03T09:03:36.542Z,100128.45
2019-03-03T09:06:17.190Z,100121.35
2019-03-03T09:09:01.047Z,100121.35
2019-03-03T09:12:12.425Z,100121.09
2019-03-03T09:15:03.013Z,100111.45
2019-03-03T09:17:54.502Z,100114.08
2019-03-03T09:20:52.208Z,100126.23
2019-03-03T09:23:35.304Z,100119.31
2019-03-03T09:26:25.695Z,100119.31
2019-03-03T09:29:24.066Z,100117.61
2019-03-03T09:32:35.389Z,100118.77
2019-03-03T09:35:14.727Z,100112.66
2019-03-03T09:38:09.422Z,100105.94
2019-03-03T09:40:55.969Z,100111.16
2019-03-03T09:43:54.471Z,100093.83
2019-03-03T09:46:58.309Z,100094.03
2019-03-03T09:49:50.500Z,100096.84
2019-03-03T09:52:47.155Z,100096.84
2019-03-03T09:55:38.721Z,100082.62
2019-03-03T09:58:30.360Z,100083.20
2019-03-03T10:01:40.598Z,100083.20
2019-03-03T10:04:34.970Z,100073.05
2019-03-03T10:07:22.405Z,100071.49
2019-03-03T10:10:26.219Z,100072.02
2019-03-03T10:13:18.136Z,100065.66
2019-03-03T10:16:28.088Z,100063.72
2019-03-03T10:19:34.782Z,100051.67
2019-03-03T10:22:23.905Z,100047.95
2019-03-03T10:25:14.265Z,100055.17
2019-03-03T10:28:04.708Z,100049.91
2019-03-03T10:30:46.252Z,100049.75
2019-03-03T10:33:36.988Z,100055.92
2019-03-03T10:36:21.027Z,100059.62
2019-03-03T10:39:03.709Z,100070.20
2019-03-03T10:41:56.842Z,100075.20
2019-03-03T10:44:39.446Z,100062.64
2019-03-03T10:47:27.053Z,100066.48
2019-03-03T10:50:18.632Z,100056.98
2019-03-03T10:53:04.753Z,100057.34
2019-03-03T10:56:02.502Z,100051.52
2019-03-03T10:58:44.823Z,100042.22
2019-03-03T11:01:34.648Z,100032.61
2019-03-03T11:04:15.733Z,100033.20
2019-03-03T11:07:26.149Z,100031.10
2019-03-03T11:10:19.128Z,100022.42
2019-03-03T11:13:02.147Z,100021.62
2019-03-03T11:15:43.889Z,100027.56
2019-03-03T11:18:34.213Z,100023.25
2019-03-03T11:21:25.223Z,100024.27
2019-03-03T11:24:04.275Z,100023.84
2019-03-03T11:26:55.872Z,100014.34
2019-03-03T11:29:39.312Z,100000.55
2019-03-03T11:32:30.928Z,99997.06
2019-03-03T11:35:21.639Z,99986.34
2019-03-03T11:38:09.100Z,99981.50
2019-03-03T11:41:10.927Z,99983.13
2019-03-03T11:43:58.340Z,99985.80
2019-03-03T11:46:53.066Z,99980.77
2019-03-03T11:49:40.615Z,99981.32
2019-03-03T11:52:30.936Z,99982.88
2019-03-03T11:55:08.658Z,99985.27
2019-03-03T11:57:50.975Z,99994.25
2019-03-03T12:00:39.803Z,99988.77
2019-03-03T12:03:24.013Z,99988.54
2019-03-03T12:06:12.281Z,99979.97
2019-03-03T12:09:07.087Z,99986.90
2019-03-03T12:12:03.304Z,99971.13
2019-03-03T12:14:53.997Z,99966.48
2019-03-03T12:17:48.319Z,99959.45
2019-03-03T12:20:40.122Z,99958.41
2019-03-03T12:23:31.894Z,99961.83
2019-03-03T12:26:15.492Z,99963.24
2019-03-03T12:29:07.116Z,99959.20
2019-03-03T12:32:04.682Z,99960.52
2019-03-03T12:34:54.813Z,99954.53
2019-03-03T12:37:58.726Z,99954.73
2019-03-03T12:40:54.150Z,99950.06
2019-03-03T12:43:43.654Z,99954.75
2019-03-03T12:46:27.802Z,99954.16
2019-03-03T12:49:14.811Z,99947.83
2019-03-03T12:52:06.739Z,99942.08
2019-03-03T12:54:52.579Z,99947.93
2019-03-03T12:57:37.097Z,99939.19
2019-03-03T13:00:27.393Z,99948.11
2019-03-03T13:03:25.248Z,99943.69
2019-03-03T13:06:24.516Z,99950.52
2019-03-03T13:09:19.377Z,99948.09
2019-03-03T13:12:09.625Z,99938.05
2019-03-03T13:15:04.482Z,99942.58
2019-03-03T13:17:48.411Z,99938.84
2019-03-03T13:20:39.948Z,99939.43
2019-03-03T13:23:34.546Z,99935.13
2019-03-03T13:26:25.286Z,99940.23
2019-03-03T13:29:22.918Z,99944.28
2019-03-03T13:32:13.114Z,99949.25
2019-03-03T13:35:14.087Z,99946.57
2019-03-03T13:38:14.667Z,99936.30
2019-03-03T13:41:05.442Z,99937.25
2019-03-03T13:43:40.322Z,99947.61
2019-03-03T13:46:13.082Z,99944.79
2019-03-03T13:48:46.046Z,99949.00
2019-03-03T13:51:18.849Z,99939.45
2019-03-03T13:53:51.671Z,99946.08
2019-03-03T13:56:24.507Z,99942.78
2019-03-03T13:58:57.484Z,99946.25
2019-03-03T14:01:30.390Z,99945.73
2019-03-03T14:04:03.099Z,99944.48
2019-03-03T14:06:36.926Z,99941.00
2019-03-03T14:09:11.630Z,99932.61
2019-03-03T14:11:44.498Z,99931.77
2019-03-03T14:14:17.880Z,99938.66
2019-03-03T14:16:52.200Z,99932.05
2019-03-03T14:19:25.060Z,99936.33
2019-03-03T14:21:58.025Z,99935.25
2019-03-03T14:24:30.868Z,99935.36
2019-03-03T14:27:10.258Z,99927.59
2019-03-03T14:29:39.396Z,99925.29
2019-03-03T14:32:15.374Z,99927.27
2019-03-03T14:34:48.423Z,99928.27
2019-03-03T14:37:22.871Z,99928.80
2019-03-03T14:39:55.736Z,99923.99
2019-03-03T14:42:28.605Z,99931.41
2019-03-03T14:45:01.362Z,99923.20
2019-03-03T14:47:34.235Z,99922.41
2019-03-03T14:50:08.618Z,99919.16
2019-03-03T14:52:41.697Z,99916.15
2019-03-03T14:55:16.543Z,99911.47
2019-03-03T14:57:49.688Z,99915.16
2019-03-03T15:00:31.606Z,99911.41
2019-03-03T15:03:06.935Z,99912.83
2019-03-03T15:05:39.667Z,99911.58
2019-03-03T15:08:12.521Z,99906.27
2019-03-03T15:10:45.644Z,99896.45
2019-03-03T15:13:18.607Z,99903.48
2019-03-03T15:15:51.495Z,99905.20
2019-03-03T15:18:24.382Z,99901.86
2019-03-03T15:20:57.221Z,99906.94
2019-03-03T15:23:30.123Z,99898.22
2019-03-03T15:26:03.259Z,99891.03
2019-03-03T15:28:36.216Z,99892.64
2019-03-03T15:31:09.156Z,99902.31
2019-03-03T15:33:42.021Z,99897.14
2019-03-03T15:36:14.927Z,99891.27
2019-03-03T15:38:47.906Z,99893.64
2019-03-03T15:41:20.745Z,99895.52
2019-03-03T15:43:54.039Z,99895.52
2019-03-03T15:46:30.262Z,99896.09
2019-03-03T15:49:03.287Z,99890.56
2019-03-03T15:51:36.258Z,99882.62
2019-03-03T15:54:11.256Z,99892.44
2019-03-03T15:56:44.216Z,99889.92
2019-03-03T15:59:19.544Z,99889.19
2019-03-03T16:01:52.369Z,99886.28
2019-03-03T16:04:25.238Z,99886.28
2019-03-03T16:06:58.058Z,99887.23
2019-03-03T16:09:31.327Z,99883.88
2019-03-03T16:12:05.027Z,99886.61
2019-03-03T16:14:38.929Z,99881.08
2019-03-03T16:17:15.403Z,99881.55
2019-03-03T16:19:52.516Z,99880.62
2019-03-03T16:22:30.353Z,99868.01
2019-03-03T16:25:08.784Z,99868.01
2019-03-03T16:27:45.099Z,99873.78
2019-03-03T16:30:22.654Z,99866.88
2019-03-03T16:32:59.996Z,99866.88
2019-03-03T16:35:37.153Z,99867.80
2019-03-03T16:38:11.526Z,99868.29
2019-03-03T16:40:49.187Z,99868.29
2019-03-03T16:43:26.713Z,99861.34
2019-03-03T16:46:01.740Z,99858.20
2019-03-03T16:48:36.086Z,99858.20
2019-03-03T16:51:09.014Z,99854.69
2019-03-03T16:53:49.735Z,99857.80
2019-03-03T16:56:24.229Z,99862.09
2019-03-03T16:58:58.898Z,99858.52
2019-03-03T17:01:32.000Z,99862.83
2019-03-03T17:04:04.876Z,99856.28
2019-03-03T17:06:37.896Z,99856.28
2019-03-03T17:09:12.821Z,99843.63
2019-03-03T17:11:47.122Z,99850.08
2019-03-03T17:14:20.207Z,99846.42
2019-03-03T17:16:53.251Z,99847.63
2019-03-03T17:19:26.331Z,99848.65
2019-03-03T17:22:01.796Z,99848.27
2019-03-03T17:24:34.779Z,99854.73
2019-03-03T17:27:08.005Z,99845.75
2019-03-03T17:29:41.197Z,99844.25
2019-03-03T17:32:14.284Z,99842.94
2019-03-03T17:34:47.426Z,99850.88
2019-03-03T17:37:20.363Z,99845.75
2019-03-03T17:39:56.726Z,99835.20
2019-03-03T17:42:29.583Z,99835.20
2019-03-03T17:45:02.560Z,99846.31
2019-03-03T17:47:35.487Z,99849.51
2019-03-03T17:50:10.480Z,99848.02
2019-03-03T17:52:48.623Z,99834.78
2019-03-03T17:55:25.413Z,99834.78
2019-03-03T17:57:58.326Z,99832.55
2019-03-03T18:00:33.998Z,99830.28
2019-03-03T18:03:07.037Z,99832.09
2019-03-03T18:05:40.073Z,99818.31
2019-03-03T18:08:12.780Z,99818.31
2019-03-03T18:10:46.250Z,99812.44
2019-03-03T18:13:19.103Z,99812.44
2019-03-03T18:15:55.090Z,99812.50
2019-03-03T18:18:27.944Z,99809.14
2019-03-03T18:21:03.963Z,99802.23
2019-03-03T18:23:36.734Z,99797.20
2019-03-03T18:26:09.973Z,99796.47
2019-03-03T18:28:42.771Z,99796.47
2019-03-03T18:31:15.749Z,99793.84
2019-03-03T18:33:53.179Z,99789.98
2019-03-03T18:36:26.068Z,99788.89
2019-03-03T18:38:58.871Z,99790.48
2019-03-03T18:41:31.787Z,99788.22
2019-03-03T18:44:04.803Z,99785.70
2019-03-03T18:46:39.138Z,99776.57
2019-03-03T18:49:15.524Z,99787.02
2019-03-03T18:51:48.616Z,99782.73
2019-03-03T18:54:21.496Z,99782.23
2019-03-03T18:56:55.712Z,99773.63
2019-03-03T18:59:29.579Z,99775.33
2019-03-03T19:02:09.583Z,99769.34
2019-03-03T19:04:44.342Z,99766.73
2019-03-03T19:07:17.462Z,99766.27
2019-03-03T19:09:52.960Z,99759.71
2019-03-03T19:12:25.804Z,99757.45
2019-03-03T19:15:05.385Z,99746.11
2019-03-03T19:17:40.749Z,99747.06
2019-03-03T19:20:20.054Z,99752.94
2019-03-03T19:22:53.468Z,99751.63
2019-03-03T19:25:26.743Z,99745.08
2019-03-03T19:28:00.283Z,99746.75
2019-03-03T19:30:33.148Z,99741.78
2019-03-03T19:33:27.427Z,99740.47
2019-03-03T19:36:00.460Z,99738.70
2019-03-03T19:38:33.327Z,99748.23
2019-03-03T19:41:06.214Z,99736.70
2019-03-03T19:43:39.312Z,99741.73
2019-03-03T19:46:12.297Z,99739.03
2019-03-03T19:48:46.693Z,99726.63
2019-03-03T19:51:20.268Z,99737.39
2019-03-03T19:53:53.152Z,99734.66
2019-03-03T19:56:26.006Z,99739.45
2019-03-03T19:58:58.888Z,99725.48
2019-03-03T20:01:33.237Z,99724.73
2019-03-03T20:04:06.072Z,99716.86
2019-03-03T20:06:39.762Z,99720.69
2019-03-03T20:09:15.726Z,99720.84
2019-03-03T20:11:48.501Z,99720.27
2019-03-03T20:14:21.394Z,99715.84
2019-03-03T20:16:56.074Z,99715.95
2019-03-03T20:19:28.608Z,99713.80
2019-03-03T20:22:02.433Z,99702.68
2019-03-03T20:24:35.233Z,99702.68
2019-03-03T20:27:08.025Z,99707.98
2019-03-03T20:29:42.123Z,99703.01
2019-03-03T20:32:15.036Z,99709.78
2019-03-03T20:34:50.556Z,99707.79
2019-03-03T20:37:23.426Z,99706.37
2019-03-03T20:39:56.366Z,99706.48
2019-03-03T20:42:29.217Z,99703.01
2019-03-03T20:45:02.150Z,99699.92
2019-03-03T20:47:35.039Z,99699.92
2019-03-03T20:50:12.022Z,99695.25
2019-03-03T20:52:44.730Z,99690.47
2019-03-03T20:55:19.248Z,99682.98
2019-03-03T20:57:52.117Z,99674.96
2019-03-03T21:00:26.958Z,99674.96
2019-03-03T21:02:59.822Z,99676.05
2019-03-03T21:05:32.610Z,99666.25
2019-03-03T21:08:05.602Z,99671.03
2019-03-03T21:10:38.479Z,99671.03
2019-03-03T21:13:12.802Z,99662.09
2019-03-03T21:15:45.602Z,99659.00
2019-03-03T21:18:18.520Z,99665.56
2019-03-03T21:20:51.276Z,99656.50
2019-03-03T21:23:24.247Z,99654.80
2019-03-03T21:25:57.193Z,99652.09
2019-03-03T21:28:30.040Z,99656.50
2019-03-03T21:31:02.934Z,99651.25
2019-03-03T21:33:36.773Z,99642.66
2019-03-03T21:36:09.679Z,99639.80
2019-03-03T21:38:42.509Z,99630.63
2019-03-03T21:41:15.440Z,99630.63
2019-03-03T21:43:48.279Z,99623.91
2019-03-03T21:46:21.358Z,99631.47
2019-03-03T21:48:54.200Z,99631.47
2019-03-03T21:51:27.499Z,99629.31
2019-03-03T21:54:00.317Z,99626.34
2019-03-03T21:56:33.211Z,99617.52
2019-03-03T21:59:06.050Z,99623.26
2019-03-03T22:01:38.872Z,99606.64
2019-03-03T22:04:11.667Z,99606.64
2019-03-03T22:06:44.608Z,99613.19
2019-03-03T22:09:17.432Z,99611.15
2019-03-03T22:11:52.033Z,99611.99
2019-03-03T22:14:26.281Z,99608.14
2019-03-03T22:16:59.074Z,99604.48
2019-03-03T22:19:31.815Z,99611.03
2019-03-03T22:22:04.804Z,99599.08
2019-03-03T22:24:37.639Z,99605.44
2019-03-03T22:27:12.188Z,99598.15
2019-03-03T22:29:44.921Z,99601.51
2019-03-03T22:32:17.715Z,99594.95
2019-03-03T22:34:50.784Z,99591.10
2019-03-03T22:37:23.887Z,99590.64
2019-03-03T22:39:56.775Z,99575.02
2019-03-03T22:42:29.579Z,99575.02
2019-03-03T22:45:02.444Z,99578.15
2019-03-03T22:47:35.443Z,99572.17
2019-03-03T22:50:10.969Z,99572.17
2019-03-03T22:52:43.799Z,99572.55
2019-03-03T22:55:17.019Z,99572.55
2019-03-03T22:57:49.816Z,99569.20
2019-03-03T23:00:45.922Z,99562.64
2019-03-03T23:03:41.775Z,99561.45
2019-03-03T23:06:40.054Z,99558.78
2019-03-03T23:10:13.420Z,99548.88
2019-03-03T23:14:10.228Z,99552.59
2019-03-03T23:17:30.979Z,99552.59
2019-03-03T23:21:05.667Z,99555.09
2019-03-03T23:24:38.315Z,99546.27
2019-03-03T23:27:11.139Z,99546.72
2019-03-03T23:29:43.894Z,99541.33
2019-03-03T23:32:16.634Z,99541.33
2019-03-03T23:34:49.421Z,99537.78
2019-03-03T23:37:22.127Z,99532.53
2019-03-03T23:39:54.995Z,99532.53
2019-03-03T23:42:27.784Z,99527.91
2019-03-03T23:45:00.584Z,99519.66
2019-03-03T23:47:33.452Z,99519.78
2019-03-03T23:50:06.425Z,99520.25
2019-03-03T23:52:39.215Z,99518.31
2019-03-03T23:55:14.161Z,99517.12
2019-03-03T23:57:46.969Z,99515.50
